createdAt,value
2022-08-11T00:01:54.624Z,99048.41
2022-08-11T00:04:27.697Z,99045.44
2022-08-11T00:06:55.766Z,99044.63
2022-08-11T00:09:38.848Z,99048.13
2022-08-11T00:12:15.678Z,99046.78
2022-08-11T00:14:44.432Z,99043.53
2022-08-11T00:17:15.826Z,99043.56
2022-08-11T00:20:12.825Z,99046.81
2022-08-11T00:22:40.096Z,99042.50
2022-08-11T00:25:19.934Z,99049.25
2022-08-11T00:27:48.926Z,99049.00
2022-08-11T00:30:17.269Z,99052.50
2022-08-11T00:32:55.984Z,99058.13
2022-08-11T00:35:55.938Z,99053.84
2022-08-11T00:38:29.104Z,99055.75
2022-08-11T00:41:25.418Z,99051.41
2022-08-11T00:44:16.116Z,99053.56
2022-08-11T00:47:04.465Z,99045.44
2022-08-11T00:49:51.867Z,99052.97
2022-08-11T00:52:54.868Z,99054.03
2022-08-11T00:55:55.533Z,99058.56
2022-08-11T00:58:48.339Z,99054.50
2022-08-11T01:01:17.983Z,99057.16
2022-08-11T01:04:38.052Z,99054.44
2022-08-11T01:08:02.129Z,99056.25
2022-08-11T01:11:07.960Z,99058.91
2022-08-11T01:14:15.305Z,99058.91
2022-08-11T01:17:19.709Z,99071.69
2022-08-11T01:20:45.727Z,99063.66
2022-08-11T01:23:59.737Z,99070.50
2022-08-11T01:27:19.787Z,99062.56
2022-08-11T01:30:54.155Z,99065.81
2022-08-11T01:34:01.758Z,99052.81
2022-08-11T01:37:09.340Z,99059.00
2022-08-11T01:39:51.358Z,99054.13
2022-08-11T01:43:36.035Z,99050.63
2022-08-11T01:46:18.200Z,99064.88
2022-08-11T01:49:29.067Z,99056.28
2022-08-11T01:52:19.404Z,99054.56
2022-08-11T01:55:32.227Z,99051.34
2022-08-11T01:58:40.751Z,99055.16
2022-08-11T02:01:36.201Z,99051.06
2022-08-11T02:04:47.028Z,99046.50
2022-08-11T02:07:27.425Z,99058.78
2022-08-11T02:10:00.685Z,99050.38
2022-08-11T02:12:38.005Z,99049.25
2022-08-11T02:15:36.393Z,99058.38
2022-08-11T02:18:20.473Z,99055.22
2022-08-11T02:21:15.869Z,99048.75
2022-08-11T02:24:08.170Z,99055.09
2022-08-11T02:27:02.183Z,99055.59
2022-08-11T02:30:07.326Z,99048.38
2022-08-11T02:33:07.429Z,99048.31
2022-08-11T02:36:08.348Z,99045.34
2022-08-11T02:39:03.065Z,99039.16
2022-08-11T02:42:00.474Z,99036.75
2022-08-11T02:44:42.367Z,99043.16
2022-08-11T02:47:22.720Z,99038.84
2022-08-11T02:50:06.855Z,99035.59
2022-08-11T02:52:53.301Z,99044.47
2022-08-11T02:55:56.171Z,99036.63
2022-08-11T02:58:33.237Z,99042.69
2022-08-11T03:01:39.092Z,99041.44
2022-08-11T03:04:55.365Z,99049.81
2022-08-11T03:07:29.828Z,99043.25
2022-08-11T03:10:21.452Z,99052.06
2022-08-11T03:13:26.915Z,99048.06
2022-08-11T03:16:45.678Z,99041.88
2022-08-11T03:19:37.141Z,99047.75
2022-08-11T03:22:19.234Z,99045.88
2022-08-11T03:24:54.694Z,99050.66
2022-08-11T03:27:27.282Z,99045.38
2022-08-11T03:30:14.708Z,99046.47
2022-08-11T03:33:41.248Z,99049.25
2022-08-11T03:37:16.030Z,99056.19
2022-08-11T03:39:57.763Z,99049.81
2022-08-11T03:42:41.860Z,99053.66
2022-08-11T03:45:27.152Z,99059.31
2022-08-11T03:48:24.988Z,99061.28
2022-08-11T03:51:51.658Z,99067.84
2022-08-11T03:54:54.442Z,99068.78
2022-08-11T03:57:55.588Z,99066.03
2022-08-11T04:01:12.579Z,99064.34
2022-08-11T04:04:26.087Z,99060.94
2022-08-11T04:07:38.929Z,99061.50
2022-08-11T04:10:29.792Z,99065.09
2022-08-11T04:13:20.768Z,99063.13
2022-08-11T04:16:30.124Z,99072.59
2022-08-11T04:19:53.786Z,99063.06
2022-08-11T04:22:38.694Z,99068.72
2022-08-11T04:25:34.116Z,99060.25
2022-08-11T04:29:09.523Z,99069.03
2022-08-11T04:31:59.391Z,99063.63
2022-08-11T04:35:17.725Z,99068.41
2022-08-11T04:38:27.114Z,99069.41
2022-08-11T04:41:31.963Z,99070.91
2022-08-11T04:45:03.277Z,99081.66
2022-08-11T04:48:23.400Z,99074.91
2022-08-11T04:51:50.900Z,99077.19
2022-08-11T04:55:10.145Z,99069.91
2022-08-11T04:58:20.904Z,99079.88
2022-08-11T05:01:42.303Z,99083.50
2022-08-11T05:05:13.242Z,99080.22
2022-08-11T05:08:00.779Z,99085.91
2022-08-11T05:10:58.573Z,99080.41
2022-08-11T05:13:52.131Z,99077.59
2022-08-11T05:16:47.082Z,99081.09
2022-08-11T05:19:39.133Z,99089.63
2022-08-11T05:22:32.016Z,99092.78
2022-08-11T05:26:43.644Z,99086.84
2022-08-11T05:28:53.632Z,99088.69
2022-08-11T05:31:50.632Z,99086.59
2022-08-11T05:34:51.408Z,99088.75
2022-08-11T05:37:30.283Z,99093.53
2022-08-11T05:40:32.029Z,99100.69
2022-08-11T05:43:22.070Z,99094.78
2022-08-11T05:46:21.329Z,99094.19
2022-08-11T05:49:08.919Z,99098.84
2022-08-11T05:52:05.424Z,99101.94
2022-08-11T05:55:06.086Z,99108.44
2022-08-11T05:57:50.553Z,99100.53
2022-08-11T06:00:20.257Z,99102.06
2022-08-11T06:02:55.250Z,99102.88
2022-08-11T06:05:23.265Z,99100.34
2022-08-11T06:07:57.018Z,99104.50
2022-08-11T06:10:34.463Z,99099.59
2022-08-11T06:13:04.926Z,99098.31
2022-08-11T06:15:43.545Z,99091.81
2022-08-11T06:18:13.717Z,99096.97
2022-08-11T06:20:55.012Z,99093.28
2022-08-11T06:23:25.927Z,99095.22
2022-08-11T06:25:56.159Z,99095.19
2022-08-11T06:28:35.784Z,99095.38
2022-08-11T06:31:13.182Z,99091.47
2022-08-11T06:33:51.308Z,99096.88
2022-08-11T06:36:38.953Z,99102.06
2022-08-11T06:39:42.144Z,99090.31
2022-08-11T06:42:28.677Z,99098.25
2022-08-11T06:45:05.187Z,99102.19
2022-08-11T06:47:32.764Z,99097.50
2022-08-11T06:50:19.482Z,99094.91
2022-08-11T06:52:48.150Z,99092.31
2022-08-11T06:55:56.246Z,99089.16
2022-08-11T06:58:53.191Z,99096.28
2022-08-11T07:02:06.787Z,99102.78
2022-08-11T07:05:01.314Z,99093.50
2022-08-11T07:08:43.179Z,99098.69
2022-08-11T07:12:18.849Z,99091.00
2022-08-11T07:15:14.078Z,99088.66
2022-08-11T07:18:13.926Z,99089.53
2022-08-11T07:21:02.277Z,99094.19
2022-08-11T07:23:55.205Z,99083.50
2022-08-11T07:26:45.850Z,99087.31
2022-08-11T07:29:14.976Z,99091.66
2022-08-11T07:31:50.068Z,99083.91
2022-08-11T07:34:28.194Z,99083.44
2022-08-11T07:36:59.618Z,99075.38
2022-08-11T07:39:31.915Z,99082.13
2022-08-11T07:42:06.124Z,99078.34
2022-08-11T07:44:54.397Z,99076.50
2022-08-11T07:47:41.741Z,99073.78
2022-08-11T07:50:29.196Z,99072.69
2022-08-11T07:53:04.098Z,99074.56
2022-08-11T07:55:50.174Z,99068.06
2022-08-11T07:58:45.495Z,99072.94
2022-08-11T08:01:45.741Z,99064.16
2022-08-11T08:04:34.831Z,99058.28
2022-08-11T08:07:24.417Z,99062.56
2022-08-11T08:10:14.220Z,99071.19
2022-08-11T08:13:02.525Z,99072.75
2022-08-11T08:15:50.019Z,99063.97
2022-08-11T08:18:26.656Z,99065.00
2022-08-11T08:21:11.835Z,99062.72
2022-08-11T08:23:46.703Z,99061.34
2022-08-11T08:26:34.796Z,99063.66
2022-08-11T08:29:25.016Z,99062.63
2022-08-11T08:31:53.600Z,99070.56
2022-08-11T08:34:21.714Z,99054.13
2022-08-11T08:36:51.829Z,99068.41
2022-08-11T08:39:22.831Z,99054.16
2022-08-11T08:41:55.954Z,99056.16
2022-08-11T08:44:42.076Z,99061.53
2022-08-11T08:47:38.761Z,99061.25
2022-08-11T08:50:10.625Z,99056.53
2022-08-11T08:52:53.521Z,99058.41
2022-08-11T08:55:22.152Z,99064.31
2022-08-11T08:57:54.212Z,99050.59
2022-08-11T09:00:23.626Z,99061.78
2022-08-11T09:02:52.240Z,99056.59
2022-08-11T09:05:21.113Z,99067.84
2022-08-11T09:07:54.475Z,99059.03
2022-08-11T09:10:22.726Z,99048.25
2022-08-11T09:12:51.977Z,99053.72
2022-08-11T09:15:20.694Z,99061.44
2022-08-11T09:17:53.731Z,99053.41
2022-08-11T09:20:29.118Z,99054.59
2022-08-11T09:26:30.923Z,99055.38
2022-08-11T09:28:59.557Z,99054.44
2022-08-11T09:31:29.501Z,99038.25
2022-08-11T09:33:56.661Z,99051.72
2022-08-11T09:36:42.547Z,99050.72
2022-08-11T09:39:31.617Z,99053.56
2022-08-11T09:42:04.435Z,99056.41
2022-08-11T09:44:52.225Z,99054.13
2022-08-11T09:47:33.964Z,99050.34
2022-08-11T09:50:02.763Z,99044.94
2022-08-11T09:52:35.918Z,99046.06
2022-08-11T09:55:10.883Z,99043.34
2022-08-11T09:58:04.220Z,99036.19
2022-08-11T10:00:40.164Z,99038.34
2022-08-11T10:03:16.826Z,99041.16
2022-08-11T10:06:10.704Z,99033.69
2022-08-11T10:08:42.310Z,99037.59
2022-08-11T10:11:14.649Z,99034.25
2022-08-11T10:14:31.368Z,99031.84
2022-08-11T10:16:55.178Z,99032.44
2022-08-11T10:19:22.967Z,99032.09
2022-08-11T10:22:13.412Z,99020.59
2022-08-11T10:25:03.418Z,99014.53
2022-08-11T10:28:16.644Z,99025.09
2022-08-11T10:30:38.120Z,99015.81
2022-08-11T10:33:36.784Z,99023.91
2022-08-11T10:36:16.484Z,99017.25
2022-08-11T10:38:50.258Z,99003.25
2022-08-11T10:41:37.370Z,99001.66
2022-08-11T10:44:24.720Z,98991.06
2022-08-11T10:47:11.466Z,98987.31
2022-08-11T10:49:38.673Z,98988.31
2022-08-11T10:52:24.698Z,98986.97
2022-08-11T10:55:11.226Z,98988.22
2022-08-11T10:58:04.721Z,98983.69
2022-08-11T11:00:34.935Z,98982.56
2022-08-11T11:03:16.867Z,98975.25
2022-08-11T11:06:27.608Z,98970.97
2022-08-11T11:08:55.529Z,98964.09
2022-08-11T11:11:52.124Z,98972.28
2022-08-11T11:14:46.024Z,98963.97
2022-08-11T11:17:47.585Z,98963.56
2022-08-11T11:20:35.767Z,98959.72
2022-08-11T11:23:20.729Z,98960.81
2022-08-11T11:26:07.137Z,98955.06
2022-08-11T11:28:59.574Z,98958.44
2022-08-11T11:32:06.361Z,98958.94
2022-08-11T11:34:52.930Z,98950.25
2022-08-11T11:37:23.611Z,98935.41
2022-08-11T11:39:52.001Z,98937.66
2022-08-11T11:42:21.364Z,98929.28
2022-08-11T11:44:49.057Z,98918.53
2022-08-11T11:47:21.808Z,98931.38
2022-08-11T11:49:50.129Z,98924.31
2022-08-11T11:52:21.009Z,98918.06
2022-08-11T11:54:51.970Z,98921.53
2022-08-11T11:57:40.525Z,98927.81
2022-08-11T12:00:33.732Z,98919.47
2022-08-11T12:03:05.054Z,98913.22
2022-08-11T12:05:38.043Z,98907.28
2022-08-11T12:08:18.609Z,98916.25
2022-08-11T12:11:19.058Z,98911.72
2022-08-11T12:13:50.319Z,98918.78
2022-08-11T12:16:35.737Z,98914.44
2022-08-11T12:19:16.858Z,98906.88
2022-08-11T12:22:04.305Z,98909.09
2022-08-11T12:24:53.612Z,98904.59
2022-08-11T12:27:25.211Z,98908.91
2022-08-11T12:30:09.127Z,98902.47
2022-08-11T12:32:39.473Z,98901.81
2022-08-11T12:35:08.233Z,98887.84
2022-08-11T12:38:03.699Z,98846.44
2022-08-11T12:44:06.696Z,98897.38
2022-08-11T12:46:37.756Z,98893.88
2022-08-11T12:49:36.296Z,98877.47
2022-08-11T12:52:12.758Z,98879.56
2022-08-11T12:54:59.791Z,98872.34
2022-08-11T12:58:05.697Z,98869.88
2022-08-11T13:00:52.299Z,98867.50
2022-08-11T13:03:39.570Z,98865.69
2022-08-11T13:06:08.605Z,98859.16
2022-08-11T13:08:39.951Z,98856.13
2022-08-11T13:11:55.610Z,98851.91
2022-08-11T13:14:16.726Z,98845.59
2022-08-11T13:17:04.243Z,98845.84
2022-08-11T13:19:32.946Z,98842.78
2022-08-11T13:22:02.337Z,98846.13
2022-08-11T13:24:34.007Z,98845.09
2022-08-11T13:27:02.968Z,98846.44
2022-08-11T13:29:30.820Z,98841.63
2022-08-11T13:32:02.058Z,98835.63
2022-08-11T13:34:32.101Z,98835.72
2022-08-11T13:37:04.955Z,98833.06
2022-08-11T13:39:34.478Z,98824.53
2022-08-11T13:42:04.391Z,98830.22
2022-08-11T13:44:37.795Z,98819.25
2022-08-11T13:47:08.625Z,98816.69
2022-08-11T13:49:40.417Z,98816.50
2022-08-11T13:52:15.722Z,98819.25
2022-08-11T13:54:47.958Z,98807.06
2022-08-11T13:58:06.358Z,98813.09
2022-08-11T14:00:25.132Z,98826.28
2022-08-11T14:02:57.754Z,98813.25
2022-08-11T14:05:36.711Z,98807.06
2022-08-11T14:08:31.816Z,98799.09
2022-08-11T14:12:21.266Z,98798.47
2022-08-11T14:14:21.308Z,98790.13
2022-08-11T14:16:52.212Z,98797.81
2022-08-11T14:19:25.787Z,98795.97
2022-08-11T14:22:08.142Z,98798.16
2022-08-11T14:24:42.787Z,98788.09
2022-08-11T14:27:39.118Z,98795.53
2022-08-11T14:30:00.988Z,98781.69
2022-08-11T14:32:28.788Z,98786.13
2022-08-11T14:34:56.768Z,98788.34
2022-08-11T14:37:27.963Z,98790.53
2022-08-11T14:40:03.892Z,98782.97
2022-08-11T14:42:50.015Z,98768.81
2022-08-11T14:45:54.273Z,98782.94
2022-08-11T14:48:24.446Z,98758.84
2022-08-11T14:50:52.865Z,98775.09
2022-08-11T14:53:23.389Z,98776.06
2022-08-11T14:56:10.038Z,98761.13
2022-08-11T14:58:38.537Z,98772.59
2022-08-11T15:01:26.000Z,98759.34
2022-08-11T15:04:27.311Z,98759.78
2022-08-11T15:06:40.840Z,98759.03
2022-08-11T15:09:09.283Z,98757.00
2022-08-11T15:11:59.909Z,98762.72
2022-08-11T15:14:45.741Z,98760.41
2022-08-11T15:17:14.310Z,98750.50
2022-08-11T15:20:03.154Z,98748.91
2022-08-11T15:22:49.064Z,98747.16
2022-08-11T15:25:16.003Z,98737.19
2022-08-11T15:28:07.063Z,98743.34
2022-08-11T15:31:03.587Z,98744.09
2022-08-11T15:33:51.527Z,98742.72
2022-08-11T15:36:38.539Z,98735.47
2022-08-11T15:39:19.352Z,98736.31
2022-08-11T15:42:51.260Z,98729.09
2022-08-11T15:45:43.018Z,98727.34
2022-08-11T15:48:16.596Z,98731.38
2022-08-11T15:50:57.645Z,98729.78
2022-08-11T15:53:38.719Z,98723.63
2022-08-11T15:56:08.372Z,98712.31
2022-08-11T15:59:10.702Z,98722.94
2022-08-11T16:02:10.260Z,98724.06
2022-08-11T16:04:39.846Z,98722.75
2022-08-11T16:07:14.579Z,98718.13
2022-08-11T16:09:57.006Z,98719.25
2022-08-11T16:12:31.518Z,98719.56
2022-08-11T16:15:23.282Z,98722.03
2022-08-11T16:17:59.393Z,98718.38
2022-08-11T16:20:29.033Z,98716.34
2022-08-11T16:23:02.935Z,98721.34
2022-08-11T16:27:05.717Z,98704.88
2022-08-11T16:28:24.444Z,98702.19
2022-08-11T16:30:53.865Z,98702.41
2022-08-11T16:33:50.801Z,98702.53
2022-08-11T16:36:34.583Z,98696.28
2022-08-11T16:39:04.768Z,98697.31
2022-08-11T16:41:54.698Z,98687.38
2022-08-11T16:44:43.638Z,98686.28
2022-08-11T16:48:03.050Z,98696.03
2022-08-11T16:50:09.725Z,98695.16
2022-08-11T16:52:37.187Z,98688.84
2022-08-11T16:55:05.733Z,98691.25
2022-08-11T16:57:53.333Z,98692.25
2022-08-11T17:00:20.120Z,98694.97
2022-08-11T17:03:10.624Z,98699.28
2022-08-11T17:06:10.246Z,98699.09
2022-08-11T17:09:07.063Z,98701.81
2022-08-11T17:12:16.948Z,98705.22
2022-08-11T17:14:51.813Z,98695.56
2022-08-11T17:17:36.611Z,98693.66
2022-08-11T17:20:41.350Z,98693.19
2022-08-11T17:23:17.634Z,98691.25
2022-08-11T17:25:59.918Z,98691.44
2022-08-11T17:28:33.062Z,98681.34
2022-08-11T17:31:21.731Z,98677.81
2022-08-11T17:34:10.149Z,98683.09
2022-08-11T17:36:43.161Z,98677.81
2022-08-11T17:39:15.230Z,98676.03
2022-08-11T17:42:02.640Z,98672.38
2022-08-11T17:44:51.610Z,98682.44
2022-08-11T17:47:38.113Z,98680.66
2022-08-11T17:50:16.403Z,98676.34
2022-08-11T17:53:05.400Z,98685.41
2022-08-11T17:55:54.187Z,98685.56
2022-08-11T17:58:41.656Z,98679.38
2022-08-11T18:01:11.861Z,98682.81
2022-08-11T18:03:57.587Z,98679.31
2022-08-11T18:06:33.718Z,98684.38
2022-08-11T18:09:24.026Z,98694.63
2022-08-11T18:12:13.407Z,98691.91
2022-08-11T18:15:05.830Z,98689.59
2022-08-11T18:17:52.977Z,98702.88
2022-08-11T18:20:39.256Z,98706.03
2022-08-11T18:23:41.799Z,98709.81
2022-08-11T18:26:38.946Z,98709.16
2022-08-11T18:29:26.376Z,98716.19
2022-08-11T18:32:21.772Z,98707.03
2022-08-11T18:35:12.258Z,98716.25
2022-08-11T18:38:07.879Z,98715.84
2022-08-11T18:40:56.360Z,98710.91
2022-08-11T18:43:46.152Z,98722.88
2022-08-11T18:46:35.054Z,98731.16
2022-08-11T18:50:01.953Z,98736.28
2022-08-11T18:52:41.006Z,98731.06
2022-08-11T18:55:36.294Z,98731.59
2022-08-11T18:58:27.426Z,98734.31
2022-08-11T19:01:18.854Z,98732.44
2022-08-11T19:04:11.149Z,98737.06
2022-08-11T19:07:00.038Z,98735.09
2022-08-11T19:09:48.342Z,98742.44
2022-08-11T19:12:35.951Z,98742.03
2022-08-11T19:15:23.623Z,98732.00
2022-08-11T19:18:11.706Z,98743.25
2022-08-11T19:21:01.044Z,98741.34
2022-08-11T19:24:00.344Z,98751.00
2022-08-11T19:26:49.752Z,98751.19
2022-08-11T19:30:04.742Z,98749.97
2022-08-11T19:32:49.776Z,98758.75
2022-08-11T19:35:36.144Z,98750.19
2022-08-11T19:38:22.638Z,98751.59
2022-08-11T19:41:10.284Z,98748.53
2022-08-11T19:43:58.981Z,98748.63
2022-08-11T19:46:45.818Z,98757.22
2022-08-11T19:49:32.968Z,98760.88
2022-08-11T19:52:19.013Z,98758.34
2022-08-11T19:55:05.949Z,98755.03
2022-08-11T19:57:54.302Z,98766.00
2022-08-11T20:00:41.668Z,98767.66
2022-08-11T20:03:33.631Z,98758.91
2022-08-11T20:06:25.738Z,98760.16
2022-08-11T20:09:18.929Z,98755.66
2022-08-11T20:12:10.567Z,98749.97
2022-08-11T20:15:13.627Z,98744.19
2022-08-11T20:18:01.834Z,98752.69
2022-08-11T20:20:49.250Z,98755.78
2022-08-11T20:23:36.342Z,98755.28
2022-08-11T20:26:31.142Z,98756.31
2022-08-11T20:29:21.262Z,98758.00
2022-08-11T20:32:10.208Z,98760.38
2022-08-11T20:34:58.761Z,98759.56
2022-08-11T20:37:50.820Z,98755.34
2022-08-11T20:40:43.212Z,98758.50
2022-08-11T20:44:07.442Z,98766.03
2022-08-11T20:46:41.821Z,98755.88
2022-08-11T20:49:40.930Z,98767.50
2022-08-11T20:52:37.335Z,98759.50
2022-08-11T20:59:11.846Z,98772.28
2022-08-11T21:01:47.220Z,98773.69
2022-08-11T21:04:55.071Z,98763.38
2022-08-11T21:07:56.674Z,98760.44
2022-08-11T21:10:51.632Z,98768.44
2022-08-11T21:13:51.473Z,98764.81
2022-08-11T21:16:55.385Z,98769.88
2022-08-11T21:20:06.571Z,98775.88
2022-08-11T21:23:05.966Z,98770.84
2022-08-11T21:26:14.435Z,98777.66
2022-08-11T21:29:04.153Z,98768.13
2022-08-11T21:31:52.148Z,98771.28
2022-08-11T21:34:41.245Z,98776.56
2022-08-11T21:37:28.673Z,98771.34
2022-08-11T21:40:18.576Z,98770.13
2022-08-11T21:43:07.035Z,98768.28
2022-08-11T21:45:56.520Z,98770.31
2022-08-11T21:48:45.680Z,98762.63
2022-08-11T21:51:31.133Z,98769.06
2022-08-11T21:54:18.547Z,98766.13
2022-08-11T21:57:06.460Z,98770.00
2022-08-11T22:00:09.436Z,98772.72
2022-08-11T22:02:57.393Z,98766.41
2022-08-11T22:05:44.707Z,98770.94
2022-08-11T22:08:31.972Z,98763.44
2022-08-11T22:11:32.048Z,98764.16
2022-08-11T22:14:23.029Z,98769.56
2022-08-11T22:17:09.008Z,98760.78
2022-08-11T22:20:00.714Z,98765.38
2022-08-11T22:22:53.006Z,98766.06
2022-08-11T22:25:54.267Z,98764.50
2022-08-11T22:28:40.492Z,98767.59
2022-08-11T22:31:29.240Z,98773.88
2022-08-11T22:34:15.292Z,98770.00
2022-08-11T22:37:03.215Z,98767.31
2022-08-11T22:39:59.918Z,98766.50
2022-08-11T22:42:47.900Z,98771.63
2022-08-11T22:45:33.147Z,98770.66
2022-08-11T22:48:23.155Z,98774.41
2022-08-11T22:51:10.493Z,98784.72
2022-08-11T22:53:59.234Z,98783.19
2022-08-11T22:56:51.008Z,98779.31
2022-08-11T22:59:38.455Z,98774.56
2022-08-11T23:02:25.839Z,98772.72
2022-08-11T23:05:13.167Z,98783.28
2022-08-11T23:08:00.369Z,98780.00
2022-08-11T23:10:46.828Z,98779.25
2022-08-11T23:13:34.702Z,98782.28
2022-08-11T23:16:20.908Z,98781.03
2022-08-11T23:19:08.530Z,98783.38
2022-08-11T23:21:54.703Z,98780.69
2022-08-11T23:24:42.880Z,98775.91
2022-08-11T23:27:28.949Z,98776.16
2022-08-11T23:30:19.229Z,98786.44
2022-08-11T23:33:09.449Z,98773.78
2022-08-11T23:36:02.261Z,98783.81
2022-08-11T23:38:52.153Z,98786.03
2022-08-11T23:41:38.104Z,98787.97
2022-08-11T23:44:26.448Z,98785.44
2022-08-11T23:47:18.568Z,98792.44
2022-08-11T23:50:06.530Z,98796.56
2022-08-11T23:52:53.845Z,98799.06
2022-08-11T23:55:40.323Z,98799.66
2022-08-11T23:58:27.808Z,98801.06
